Airfield :
LOGIN :

Register | Disclaimer

   EN    FR    IT 

 










Legend :    VFR   Marginal VFR   IFR   Intensive IFR   Very Intensive IFR
Visi :
Ceiling :
>= 8 km
>= 3000ft
5 to 8 km
1000 to 3000 ft
1500m to 5 km
500 to 1000 ft
800 to 1500m
200 to 500 ft
< 800m
< 200 ft
Symbols :   Thunderstorms  Fog  Heavy snow  Heavy precipitations  Wind > 20 kt
SIGMETs :     Misc.  Thunderstorms  Icing  Turbulence  Mountain Waves  Volcanic Ashes







- Airport Elevation : 236 ft
- IATA code : MMX


ESMS - Malmö Sturup

CURRENT METAR :
  • 150420Z AUTO 04003KT 3500 -SN OVC003/// 01/00 Q1030

EXPIRED METARs :
  • 150350Z AUTO 02003KT 3500 -SN BKN004/// OVC017/// 01/00 Q1030 REUP
  • 150320Z AUTO 03003KT 7000 FEW014/// BKN021/// OVC027/// 01/00 Q1030
  • 150250Z AUTO 05003KT 9000 FEW016/// BKN020/// OVC030/// 01/00 Q1030
  • 150220Z 07003KT 9999 BKN033 BKN041 OVC059 01/00 Q1030
  • 150150Z 06004KT 9000 OVC032 01/00 Q1030

TAF TAF ESMS
Valid from the 15 at 00:00 until the 16 at 00:00 UTC


142310Z 1500/1524 07005KT 9999 BKN030
TEMPO 1500/1524 2000 -SHSN BKN004 BKN015TCU
No reported NOTAMs for that airfield.



MET'MAP, your aeronautical weather chart ! - Copyright ORBIFLY December 2007 - Disclaimer

ORBIFLY MET'MAP TEAM :

Programming & Development : Alexandra Zaïnal
Concept & Development : Baudouin d'Aumeries
Co-Development & Prog : Marc-Olivier Méhu
Technical & hardware support : Manuel Goepfert

Contact : metmap@orbifly.com




SOURCES & CREDITS :

   NOAA